Time;durP1;ratioP1;P1;durP2;ratioP2;P2;SDS_P1;SDS_P2;PMS_P1;PMS_P2;Temp;Humidity;BMP_temperature;BMP_pressure;BME280_temperature;BME280_humidity;BME280_pressure;Samples;Min_cycle;Max_cycle;Signal;HPM_P1;HPM_P2
2020/12/01 00:02:11;;;;;;;28.60;3.23;;;9.60;84.00;;;;;;5086305;27;20394;-84
2020/12/01 00:04:37;;;;;;;24.47;2.23;;;9.60;84.00;;;;;;5088988;27;20036;-84
2020/12/01 00:07:03;;;;;;;45.20;5.37;;;9.60;84.00;;;;;;5059148;27;20035;-84
2020/12/01 00:09:49;;;;;;;32.30;6.03;;;9.60;84.10;;;;;;5092187;28;20046;-82
2020/12/01 00:12:35;;;;;;;24.90;2.40;;;9.70;84.10;;;;;;5078678;28;20069;-81
2020/12/01 00:15:21;;;;;;;22.53;2.43;;;9.60;84.20;;;;;;5083392;28;20109;-82
2020/12/01 00:17:48;;;;;;;12.03;2.67;;;9.70;84.30;;;;;;5076917;28;20028;-82
2020/12/01 00:20:15;;;;;;;20.27;2.20;;;9.70;84.30;;;;;;5057056;28;20459;-82
2020/12/01 00:22:40;;;;;;;16.77;2.87;;;9.80;84.30;;;;;;5108681;27;20031;-82
2020/12/01 00:25:07;;;;;;;25.03;2.60;;;9.70;84.30;;;;;;5074358;28;20523;-80
2020/12/01 00:27:33;;;;;;;19.77;2.30;;;9.70;84.30;;;;;;5081168;28;20036;-82
2020/12/01 00:29:59;;;;;;;17.57;3.67;;;9.80;84.30;;;;;;5089004;28;20032;-81
2020/12/01 00:32:45;;;;;;;23.77;3.23;;;9.90;84.30;;;;;;5078201;28;20471;-82
2020/12/01 00:35:30;;;;;;;21.80;2.10;;;9.80;84.30;;;;;;5065627;28;20046;-82
2020/12/01 00:38:16;;;;;;;24.47;2.63;;;9.80;84.30;;;;;;5087451;28;20039;-82
2020/12/01 00:40:42;;;;;;;16.57;1.50;;;9.80;84.30;;;;;;5085861;28;20534;-83
2020/12/01 00:43:27;;;;;;;15.43;2.07;;;9.80;84.30;;;;;;5067966;27;20070;-83
2020/12/01 00:46:13;;;;;;;14.20;2.83;;;9.80;84.30;;;;;;5078736;28;20048;-81
2020/12/01 00:48:39;;;;;;;10.47;1.27;;;9.70;84.20;;;;;;5088123;27;20044;-83
2020/12/01 00:51:05;;;;;;;11.23;1.80;;;9.70;84.30;;;;;;5088550;27;20050;-83
2020/12/01 00:53:50;;;;;;;20.90;3.30;;;9.70;84.20;;;;;;5085060;28;20062;-83
2020/12/01 00:56:20;;;;;;;17.30;2.53;;;9.60;84.10;;;;;;5082918;28;20044;-83
2020/12/01 00:58:46;;;;;;;19.33;2.07;;;9.60;84.70;;;;;;5086494;27;20043;-83
2020/12/01 01:01:12;;;;;;;17.13;2.10;;;9.60;84.80;;;;;;5071544;28;20036;-83
2020/12/01 01:03:58;;;;;;;21.67;2.67;;;9.50;84.20;;;;;;5066928;27;20043;-82
2020/12/01 01:06:23;;;;;;;19.03;1.53;;;9.50;84.20;;;;;;5085806;28;20556;-83
2020/12/01 01:08:50;;;;;;;24.30;2.13;;;9.50;84.40;;;;;;5090150;27;20042;-83
2020/12/01 01:11:15;;;;;;;23.50;2.17;;;9.50;84.50;;;;;;5091973;28;20023;-83
2020/12/01 01:13:41;;;;;;;19.23;1.90;;;9.40;84.50;;;;;;5076184;28;20528;-82
2020/12/01 01:16:08;;;;;;;18.10;2.77;;;9.50;84.50;;;;;;5084795;28;20096;-82
2020/12/01 01:18:54;;;;;;;20.97;2.50;;;9.50;84.50;;;;;;5065431;27;20489;-82
2020/12/01 01:21:23;;;;;;;20.50;2.77;;;9.50;85.00;;;;;;5069788;28;20047;-82
2020/12/01 01:24:09;;;;;;;24.07;4.07;;;9.50;84.40;;;;;;5053586;28;20051;-82
2020/12/01 01:26:35;;;;;;;20.33;2.47;;;9.50;84.30;;;;;;5090483;28;20070;-82
2020/12/01 01:29:22;;;;;;;19.30;1.77;;;9.40;84.30;;;;;;5087794;27;20039;-83
2020/12/01 01:32:07;;;;;;;21.83;2.40;;;9.50;84.20;;;;;;5082131;28;20078;-81
2020/12/01 01:34:33;;;;;;;26.80;2.77;;;9.60;84.30;;;;;;5084210;28;20040;-82
2020/12/01 01:36:59;;;;;;;27.77;3.93;;;9.60;84.30;;;;;;5084405;27;20055;-82
2020/12/01 01:39:24;;;;;;;14.50;2.20;;;9.50;84.20;;;;;;5107834;27;20088;-81
2020/12/01 01:41:50;;;;;;;21.93;3.10;;;9.50;84.20;;;;;;5058123;28;20032;-81
2020/12/01 01:44:20;;;;;;;20.30;2.33;;;9.50;84.20;;;;;;5069050;28;20054;-81
2020/12/01 01:47:18;;;;;;;20.83;3.03;;;9.50;84.00;;;;;;5095787;27;20063;-82
2020/12/01 01:50:12;;;;;;;19.33;1.63;;;9.50;84.50;;;;;;5060311;28;20051;-81
2020/12/01 01:52:38;;;;;;;;;;;9.50;84.00;;;;;;5074895;28;20036;-81
2020/12/01 01:55:09;;;;;;;23.07;2.67;;;9.50;84.20;;;;;;5091114;27;19915;-81
2020/12/01 01:57:58;;;;;;;19.53;3.90;;;9.40;84.20;;;;;;5076992;28;20044;-83
2020/12/01 02:03:37;;;;;;;24.50;5.07;;;9.40;84.10;;;;;;5071388;28;20178;-81
2020/12/01 02:06:22;;;;;;;34.43;3.73;;;9.50;84.20;;;;;;5091523;28;20036;-82
2020/12/01 02:09:10;;;;;;;24.77;2.80;;;9.40;84.20;;;;;;5070758;28;20044;-81
2020/12/01 02:11:37;;;;;;;28.87;3.57;;;9.50;84.30;;;;;;5072371;28;20035;-81
2020/12/01 02:14:13;;;;;;;23.50;3.43;;;9.50;84.30;;;;;;5074837;27;20125;-81
2020/12/01 02:16:48;;;;;;;26.90;4.10;;;9.50;84.20;;;;;;5092645;28;20064;-81
2020/12/01 02:19:18;;;;;;;24.57;4.00;;;9.50;84.20;;;;;;5054606;28;20044;-82
2020/12/01 02:21:43;;;;;;;21.23;3.47;;;9.60;84.20;;;;;;5085311;27;20036;-81
2020/12/01 02:24:16;;;;;;;35.87;3.27;;;9.60;84.20;;;;;;5112278;27;20046;-82
2020/12/01 02:26:42;;;;;;;25.20;4.63;;;9.60;84.10;;;;;;5075848;28;20046;-82
2020/12/01 02:29:12;;;;;;;25.57;5.00;;;9.70;84.20;;;;;;5067377;28;20023;-82
2020/12/01 02:31:38;;;;;;;29.20;4.00;;;9.70;84.10;;;;;;5071161;28;20107;-82
2020/12/01 02:34:08;;;;;;;20.40;3.83;;;9.70;84.70;;;;;;5108263;27;20063;-82
2020/12/01 02:36:34;;;;;;;26.13;3.97;;;9.70;84.10;;;;;;5086521;28;20540;-82
2020/12/01 02:39:24;;;;;;;29.90;3.33;;;9.70;84.00;;;;;;5088945;28;20426;-82
2020/12/01 02:41:52;;;;;;;22.20;3.70;;;9.70;84.00;;;;;;5090203;28;20042;-82
2020/12/01 02:44:37;;;;;;;26.87;3.40;;;9.70;84.00;;;;;;5073289;28;20101;-82
2020/12/01 02:47:23;;;;;;;24.90;3.53;;;9.70;84.00;;;;;;5077984;28;20050;-82
2020/12/01 02:49:49;;;;;;;25.57;4.30;;;9.70;83.90;;;;;;5078456;28;20043;-83
2020/12/01 02:52:34;;;;;;;32.33;3.80;;;9.70;83.90;;;;;;5069230;28;20058;-82
2020/12/01 02:55:00;;;;;;;18.20;3.63;;;9.80;84.00;;;;;;5090090;28;20523;-82
2020/12/01 02:57:46;;;;;;;22.57;3.80;;;9.80;84.00;;;;;;5070532;28;20040;-83
2020/12/01 03:00:33;;;;;;;28.67;3.80;;;9.80;84.00;;;;;;5082723;28;20046;-82
2020/12/01 03:03:19;;;;;;;21.77;3.67;;;9.80;84.00;;;;;;5084613;28;20044;-82
2020/12/01 03:05:44;;;;;;;25.60;4.83;;;9.80;84.00;;;;;;5097336;28;20384;-83
2020/12/01 03:08:10;;;;;;;20.90;3.40;;;9.80;84.00;;;;;;5079209;28;20032;-82
2020/12/01 03:10:36;;;;;;;27.13;4.27;;;9.90;84.10;;;;;;5080740;28;20040;-82
2020/12/01 03:13:22;;;;;;;25.60;4.87;;;9.90;84.10;;;;;;5083482;28;20039;-83
2020/12/01 03:15:48;;;;;;;95.43;7.00;;;9.90;84.10;;;;;;5069690;28;20039;-83
2020/12/01 03:18:13;;;;;;;26.23;4.47;;;9.90;84.10;;;;;;5101534;28;20032;-83
2020/12/01 03:20:59;;;;;;;24.40;4.40;;;9.90;84.10;;;;;;5100701;28;20038;-84
2020/12/01 03:23:25;;;;;;;27.23;3.27;;;9.90;84.10;;;;;;5077690;28;20040;-83
2020/12/01 03:25:51;;;;;;;25.17;3.73;;;10.00;84.10;;;;;;5094964;28;20050;-84
2020/12/01 03:28:17;;;;;;;19.73;3.43;;;10.00;84.00;;;;;;5090978;28;20348;-84
2020/12/01 03:30:43;;;;;;;31.07;3.73;;;9.90;84.00;;;;;;5077483;28;20118;-84
2020/12/01 03:33:09;;;;;;;24.20;3.47;;;10.00;84.00;;;;;;5079134;28;20071;-84
2020/12/01 03:35:35;;;;;;;34.10;2.63;;;10.00;84.00;;;;;;5114590;28;20126;-83
2020/12/01 03:38:01;;;;;;;21.57;4.17;;;10.00;84.10;;;;;;5062595;28;20071;-83
2020/12/01 03:40:27;;;;;;;18.60;3.97;;;10.00;84.60;;;;;;5068243;28;20040;-83
2020/12/01 03:42:52;;;;;;;83.60;5.03;;;10.00;84.00;;;;;;5091522;28;20035;-83
2020/12/01 03:45:18;;;;;;;24.83;5.50;;;10.00;84.00;;;;;;5095062;28;20517;-83
2020/12/01 03:48:04;;;;;;;19.43;4.60;;;10.00;83.90;;;;;;5062280;28;20078;-83
2020/12/01 03:50:29;;;;;;;16.47;4.30;;;10.00;83.90;;;;;;5075862;28;20048;-83
2020/12/01 03:52:56;;;;;;;23.17;5.30;;;10.10;84.10;;;;;;5096172;28;20087;-84
2020/12/01 03:55:22;;;;;;;151.67;7.43;;;10.00;83.90;;;;;;5093154;28;20032;-84
2020/12/01 03:57:48;;;;;;;18.23;2.73;;;10.00;83.90;;;;;;5063167;28;20037;-84
2020/12/01 04:00:16;;;;;;;224.50;7.57;;;10.00;83.90;;;;;;5076283;28;20494;-84
2020/12/01 04:02:42;;;;;;;81.43;5.90;;;10.10;84.10;;;;;;5079562;28;20031;-84
2020/12/01 04:05:08;;;;;;;17.43;2.90;;;10.00;84.10;;;;;;5087396;28;20040;-84
2020/12/01 04:07:34;;;;;;;24.93;2.73;;;10.00;84.10;;;;;;5084736;27;20464;-84
2020/12/01 04:09:59;;;;;;;21.33;3.63;;;10.00;84.10;;;;;;5084810;28;20027;-83
2020/12/01 04:12:26;;;;;;;184.27;6.83;;;10.00;84.10;;;;;;5084521;28;20039;-84
2020/12/01 04:14:52;;;;;;;18.10;3.67;;;10.00;84.00;;;;;;5075803;28;20044;-84
2020/12/01 04:17:38;;;;;;;23.60;5.10;;;10.00;84.10;;;;;;5097959;27;20116;-84
2020/12/01 04:20:04;;;;;;;28.73;4.20;;;10.00;84.00;;;;;;5090231;28;20817;-83
2020/12/01 04:22:30;;;;;;;21.30;3.13;;;10.10;84.70;;;;;;5090505;28;20103;-83
2020/12/01 04:24:56;;;;;;;21.20;3.43;;;10.00;84.70;;;;;;5088271;28;20071;-83
2020/12/01 04:27:21;;;;;;;93.47;5.60;;;10.00;84.10;;;;;;5096818;28;20047;-83
2020/12/01 04:29:47;;;;;;;23.07;3.67;;;10.00;84.20;;;;;;5091276;28;20095;-83
2020/12/01 04:32:33;;;;;;;16.10;3.83;;;10.00;84.30;;;;;;5087230;27;20376;-83
2020/12/01 04:34:58;;;;;;;23.63;3.60;;;10.00;84.40;;;;;;5082095;28;20045;-83
2020/12/01 04:37:24;;;;;;;17.93;3.03;;;10.00;84.30;;;;;;5099973;28;20040;-82
2020/12/01 04:39:50;;;;;;;21.37;4.60;;;10.00;84.30;;;;;;5098646;27;20435;-83
2020/12/01 04:42:17;;;;;;;14.07;4.00;;;10.10;84.40;;;;;;5100153;27;20035;-83
2020/12/01 04:44:58;;;;;;;606.20;19.37;;;10.10;84.40;;;;;;5078747;28;20062;-83
2020/12/01 04:47:35;;;;;;;67.40;4.70;;;10.10;84.40;;;;;;5077071;27;20321;-83
2020/12/01 04:50:06;;;;;;;37.77;3.57;;;10.10;84.40;;;;;;5085607;27;20031;-83
2020/12/01 04:53:16;;;;;;;12.47;2.40;;;10.10;84.50;;;;;;5087058;27;20501;-83
2020/12/01 04:56:26;;;;;;;19.63;4.10;;;10.10;85.10;;;;;;5067176;27;20471;-83
2020/12/01 04:59:34;;;;;;;15.67;2.20;;;10.10;84.50;;;;;;5117396;27;20040;-83
2020/12/01 05:02:35;;;;;;;33.03;2.33;;;10.20;84.60;;;;;;5089166;27;20052;-83
2020/12/01 05:05:09;;;;;;;13.03;2.00;;;10.20;84.60;;;;;;5093456;28;20051;-83
2020/12/01 05:08:54;;;;;;;24.03;3.40;;;10.20;84.60;;;;;;5089739;28;20121;-83
2020/12/01 05:11:44;;;;;;;17.27;2.10;;;10.20;84.60;;;;;;5078240;27;20044;-83
2020/12/01 05:14:37;;;;;;;18.73;3.00;;;10.10;84.70;;;;;;5073381;28;20111;-83
2020/12/01 05:17:26;;;;;;;15.80;2.25;;;10.30;84.90;;;;;;5097892;28;20054;-83
2020/12/01 05:20:12;;;;;;;19.03;1.80;;;10.20;84.80;;;;;;5098371;28;20063;-83
2020/12/01 05:22:38;;;;;;;19.27;1.83;;;10.20;84.90;;;;;;5091125;28;20032;-83
2020/12/01 05:25:04;;;;;;;11.87;1.87;;;10.20;84.90;;;;;;5076591;28;20055;-83
2020/12/01 05:27:32;;;;;;;14.40;1.60;;;10.20;84.90;;;;;;5082977;28;20044;-83
2020/12/01 05:29:59;;;;;;;11.97;1.23;;;10.20;84.80;;;;;;5081922;28;20028;-83
2020/12/01 05:33:22;;;;;;;10.77;2.27;;;10.20;84.70;;;;;;5088900;27;20036;-83
2020/12/01 05:36:27;;;;;;;11.03;1.73;;;10.20;84.60;;;;;;5075381;27;20070;-83
2020/12/01 05:39:00;;;;;;;6.93;1.30;;;10.10;84.50;;;;;;5099172;27;20034;-83
2020/12/01 05:41:33;;;;;;;16.50;1.87;;;10.10;84.50;;;;;;5113734;27;20167;-83
2020/12/01 05:44:01;;;;;;;18.08;2.95;;;10.10;84.50;;;;;;5093713;27;20099;-83
2020/12/01 05:46:52;;;;;;;6.07;1.07;;;10.00;84.60;;;;;;5062637;28;20043;-83
2020/12/01 05:49:43;;;;;;;8.37;1.70;;;10.10;84.80;;;;;;5099200;27;20032;-83
2020/12/01 05:52:31;;;;;;;9.30;1.80;;;10.00;84.70;;;;;;5091179;27;20112;-83
2020/12/01 05:55:19;;;;;;;12.43;3.37;;;10.00;84.80;;;;;;5095811;28;20036;-83
2020/12/01 05:58:05;;;;;;;6.70;2.43;;;10.00;84.80;;;;;;5103319;27;20042;-83
2020/12/01 06:00:35;;;;;;;4.53;1.40;;;10.00;84.90;;;;;;5093690;28;20028;-83
2020/12/01 06:03:41;;;;;;;7.90;3.10;;;10.00;85.00;;;;;;5104418;27;20047;-83
2020/12/01 06:06:07;;;;;;;11.43;2.00;;;10.10;85.00;;;;;;5091029;28;20105;-83
2020/12/01 06:08:57;;;;;;;8.70;2.33;;;10.10;85.00;;;;;;5106340;27;20044;-84
2020/12/01 06:11:39;;;;;;;11.93;2.90;;;10.10;84.90;;;;;;5117777;27;20092;-83
2020/12/01 06:14:24;;;;;;;11.07;2.47;;;10.10;84.80;;;;;;5100446;28;20064;-83
2020/12/01 06:16:57;;;;;;;10.33;1.60;;;10.20;84.90;;;;;;5101784;27;20062;-82
2020/12/01 06:19:42;;;;;;;13.93;1.73;;;10.10;84.90;;;;;;5079532;28;20040;-83
2020/12/01 06:22:20;;;;;;;16.48;1.95;;;10.20;84.90;;;;;;5083770;28;20052;-83
2020/12/01 06:25:23;;;;;;;14.00;1.83;;;10.20;84.90;;;;;;5098040;28;20527;-83
2020/12/01 06:28:26;;;;;;;21.77;2.17;;;10.20;84.90;;;;;;5088939;28;20103;-83
2020/12/01 06:30:55;;;;;;;11.00;1.30;;;10.20;85.10;;;;;;5118431;27;20043;-83
2020/12/01 06:33:53;;;;;;;9.80;1.33;;;10.20;85.10;;;;;;5096052;28;20046;-83
2020/12/01 06:36:56;;;;;;;15.60;2.47;;;10.20;85.10;;;;;;5116955;27;20031;-83
2020/12/01 06:40:20;;;;;;;19.83;2.20;;;10.20;85.00;;;;;;5086122;27;20047;-83
2020/12/01 06:43:07;;;;;;;27.40;2.47;;;10.20;85.00;;;;;;5121196;27;20065;-83
2020/12/01 06:45:35;;;;;;;25.17;2.50;;;10.20;85.10;;;;;;5091914;28;20076;-83
2020/12/01 06:48:16;;;;;;;18.17;3.53;;;10.20;85.10;;;;;;5096566;28;20510;-83
2020/12/01 06:51:01;;;;;;;9.90;2.27;;;10.20;85.10;;;;;;5071480;28;20506;-84
2020/12/01 06:53:36;;;;;;;14.80;2.60;;;10.20;85.10;;;;;;5096851;28;20072;-83
2020/12/01 06:56:22;;;;;;;20.80;2.87;;;10.30;85.10;;;;;;5070645;28;20056;-83
2020/12/01 06:59:10;;;;;;;9.57;1.57;;;10.30;85.30;;;;;;5092184;28;20040;-82
2020/12/01 07:01:36;;;;;;;9.03;1.87;;;10.30;85.20;;;;;;5088621;28;20028;-82
2020/12/01 07:04:07;;;;;;;14.37;2.23;;;10.20;85.20;;;;;;5077798;28;20085;-83
2020/12/01 07:06:50;;;;;;;6.77;0.90;;;10.30;85.30;;;;;;5093765;28;20040;-83
2020/12/01 07:09:38;;;;;;;9.77;3.43;;;10.30;85.10;;;;;;5076702;28;20127;-84
2020/12/01 07:12:13;;;;;;;12.90;1.50;;;10.30;85.20;;;;;;5094352;28;20036;-84
2020/12/01 07:14:54;;;;;;;9.80;1.17;;;10.30;85.10;;;;;;5088832;28;20062;-84
2020/12/01 07:17:20;;;;;;;7.83;0.93;;;10.30;85.10;;;;;;5079984;28;20115;-83
2020/12/01 07:20:24;;;;;;;15.70;2.00;;;10.30;85.10;;;;;;5084614;28;20487;-83
2020/12/01 07:22:53;;;;;;;;;;;10.30;85.10;;;;;;5084470;28;20510;-84
2020/12/01 07:25:45;;;;;;;11.47;1.73;;;10.30;85.20;;;;;;5064296;28;19922;-83
2020/12/01 07:28:52;;;;;;;17.60;2.80;;;10.30;85.40;;;;;;5061887;28;20044;-83
2020/12/01 07:31:25;;;;;;;21.90;3.27;;;10.30;85.40;;;;;;5079620;28;20290;-85
2020/12/01 07:34:17;;;;;;;29.10;3.77;;;10.30;85.60;;;;;;5072156;28;20869;-83
2020/12/01 07:36:47;;;;;;;27.57;3.93;;;10.40;85.80;;;;;;5084362;28;20047;-85
2020/12/01 07:39:24;;;;;;;20.47;3.63;;;10.40;85.70;;;;;;5071726;28;20055;-85
2020/12/01 07:42:19;;;;;;;32.77;3.93;;;10.40;85.60;;;;;;5048752;28;20169;-84
2020/12/01 07:45:19;;;;;;;30.63;2.90;;;10.50;85.70;;;;;;5065586;28;20124;-85
2020/12/01 07:47:45;;;;;;;39.37;3.93;;;10.50;85.50;;;;;;5070610;28;20037;-84
2020/12/01 07:50:20;;;;;;;27.63;4.33;;;10.50;86.10;;;;;;5090671;28;20111;-85
2020/12/01 07:52:47;;;;;;;33.00;3.67;;;10.50;85.50;;;;;;5089209;28;20370;-85
2020/12/01 07:55:15;;;;;;;39.37;4.93;;;10.50;85.50;;;;;;5075024;28;20047;-84
2020/12/01 07:57:41;;;;;;;36.73;4.77;;;10.50;85.50;;;;;;5088558;28;20036;-86
2020/12/01 08:00:27;;;;;;;36.17;3.97;;;10.50;85.50;;;;;;5046610;28;20089;-83
2020/12/01 08:03:40;;;;;;;32.43;4.57;;;10.60;85.50;;;;;;5074188;28;20078;-87
2020/12/01 08:06:25;;;;;;;38.37;4.73;;;10.60;85.50;;;;;;5086560;28;20408;-84
2020/12/01 08:09:30;;;;;;;36.67;5.00;;;10.60;86.10;;;;;;5082492;28;20050;-85
2020/12/01 08:12:16;;;;;;;41.63;4.03;;;10.60;85.30;;;;;;5080840;28;20052;-85
2020/12/01 08:14:50;;;;;;;28.30;3.50;;;10.60;85.40;;;;;;5080039;28;20040;-87
2020/12/01 08:17:35;;;;;;;34.42;3.70;;;10.60;85.30;;;;;;5055180;28;20476;-86
2020/12/01 08:20:03;;;;;;;36.67;5.27;;;10.70;85.40;;;;;;5078333;28;20764;-86
2020/12/01 08:22:35;;;;;;;41.10;4.60;;;10.70;85.30;;;;;;5059763;28;20047;-85
2020/12/01 08:25:04;;;;;;;25.17;3.40;;;10.80;85.40;;;;;;5086780;28;20054;-85
2020/12/01 08:27:46;;;;;;;29.67;4.17;;;10.70;85.20;;;;;;5074341;28;20127;-86
2020/12/01 08:30:35;;;;;;;28.73;3.77;;;10.70;85.30;;;;;;5091334;28;20040;-84
2020/12/01 08:33:33;;;;;;;33.73;6.53;;;10.60;86.00;;;;;;5045714;28;20055;-84
2020/12/01 08:36:12;;;;;;;30.03;3.20;;;10.60;85.70;;;;;;5086238;28;20036;-86
2020/12/01 08:38:44;;;;;;;48.80;4.77;;;10.60;86.00;;;;;;5060003;28;20040;-85
2020/12/01 08:41:31;;;;;;;28.93;3.17;;;10.60;86.40;;;;;;5085356;28;20032;-85
2020/12/01 08:44:25;;;;;;;42.93;5.13;;;10.60;86.50;;;;;;5060814;28;20046;-85
2020/12/01 08:47:11;;;;;;;39.08;5.55;;;10.60;86.70;;;;;;5066632;28;20069;-85
2020/12/01 08:49:42;;;;;;;45.70;4.13;;;10.60;86.90;;;;;;5084231;28;20536;-85
2020/12/01 08:52:29;;;;;;;40.83;5.33;;;10.60;86.80;;;;;;5088593;28;20036;-86
2020/12/01 08:55:02;;;;;;;41.77;4.27;;;10.60;86.90;;;;;;5091370;28;20108;-84
2020/12/01 08:57:38;;;;;;;41.07;4.37;;;10.70;87.10;;;;;;5086893;28;20060;-86
2020/12/01 09:00:07;;;;;;;33.67;3.43;;;10.70;86.90;;;;;;5065437;28;20393;-86
2020/12/01 09:02:40;;;;;;;31.90;4.37;;;10.70;87.00;;;;;;5073941;28;20499;-85
2020/12/01 09:05:34;;;;;;;31.75;4.18;;;10.70;87.10;;;;;;5089496;28;20116;-85
2020/12/01 09:19:26;;;;;;;22.60;4.03;;;10.90;86.60;;;;;;5073691;28;20571;-86
2020/12/01 09:22:21;;;;;;;42.95;4.03;;;10.90;86.50;;;;;;5065576;28;20040;-85
2020/12/01 09:25:18;;;;;;;34.00;3.57;;;11.00;86.70;;;;;;5091895;28;20056;-86
2020/12/01 09:27:53;;;;;;;36.17;4.20;;;11.00;86.60;;;;;;5090755;28;20078;-86
2020/12/01 09:30:35;;;;;;;37.97;4.33;;;11.00;86.80;;;;;;5059370;28;20085;-85
2020/12/01 09:33:04;;;;;;;38.80;5.47;;;11.00;86.60;;;;;;5075518;28;20055;-87
2020/12/01 09:35:51;;;;;;;46.47;4.83;;;11.10;86.50;;;;;;5067920;28;20056;-87
2020/12/01 09:38:18;;;;;;;38.40;4.73;;;11.00;86.50;;;;;;5084602;28;20088;-88
2020/12/01 09:40:52;;;;;;;40.38;5.80;;;11.00;86.50;;;;;;5047672;28;20110;-85
2020/12/01 09:43:49;;;;;;;39.17;4.55;;;11.10;86.50;;;;;;5050889;28;20043;-85
2020/12/01 09:46:28;;;;;;;43.60;5.32;;;11.00;86.40;;;;;;5084800;28;20059;-84
2020/12/01 09:49:02;;;;;;;38.97;3.70;;;11.00;86.20;;;;;;5054583;28;20044;-86
2020/12/01 09:51:58;;;;;;;41.00;3.97;;;11.00;86.30;;;;;;5085638;28;20044;-85
2020/12/01 09:55:36;;;;;;;49.83;5.63;;;11.00;86.40;;;;;;5092741;28;20048;-86
2020/12/01 10:17:50;;;;;;;29.25;3.72;;;11.00;87.00;;;;;;5057488;28;20042;-84
2020/12/01 10:23:59;;;;;;;33.58;3.05;;;11.10;86.60;;;;;;5083302;28;20624;-86
2020/12/01 10:31:55;;;;;;;35.50;4.20;;;11.20;86.70;;;;;;5069690;28;20047;-84
2020/12/01 10:36:25;;;;;;;30.95;4.90;;;11.30;86.20;;;;;;5059612;28;20040;-86
2020/12/01 10:39:11;;;;;;;22.58;4.30;;;11.40;86.30;;;;;;5064984;28;20107;-87
2020/12/01 10:41:44;;;;;;;30.88;4.88;;;11.40;86.10;;;;;;5066034;28;20052;-86
2020/12/01 10:44:10;;;;;;;32.13;5.20;;;11.50;85.90;;;;;;5080708;28;20051;-84
2020/12/01 10:46:36;;;;;;;34.00;4.28;;;11.50;85.60;;;;;;5064981;28;20035;-84
2020/12/01 10:49:22;;;;;;;27.63;4.97;;;11.70;85.60;;;;;;5081923;28;20178;-85
2020/12/01 10:51:51;;;;;;;28.92;3.42;;;11.50;85.40;;;;;;5031302;28;20115;-86
2020/12/01 10:54:37;;;;;;;22.77;4.00;;;11.50;85.30;;;;;;5042764;28;20059;-85
2020/12/01 10:57:03;;;;;;;25.17;3.22;;;11.50;84.90;;;;;;5081642;28;20095;-86
2020/12/01 10:59:37;;;;;;;27.15;3.60;;;11.50;84.40;;;;;;5082441;28;20035;-85
2020/12/01 11:02:03;;;;;;;17.80;3.42;;;11.50;84.30;;;;;;5082903;28;21499;-86
2020/12/01 11:04:38;;;;;;;19.55;3.25;;;11.40;84.30;;;;;;5068831;28;20201;-84
2020/12/01 11:07:38;;;;;;;18.23;3.05;;;11.40;84.30;;;;;;5082692;28;20040;-84
2020/12/01 11:10:25;;;;;;;20.45;2.25;;;11.30;84.30;;;;;;5085622;28;20484;-84
2020/12/01 11:13:00;;;;;;;17.60;3.08;;;11.30;84.50;;;;;;5054596;28;20361;-85
2020/12/01 11:16:00;;;;;;;11.65;2.30;;;11.30;84.10;;;;;;5064602;28;20147;-83
2020/12/01 11:18:29;;;;;;;12.50;2.30;;;11.30;83.00;;;;;;5068357;28;20041;-83
2020/12/01 11:21:12;;;;;;;;;;;;;;;;;;;;;
2020/12/01 11:23:51;;;;;;;15.65;3.70;;;11.20;82.80;;;;;;5081761;28;20124;-83
2020/12/01 11:26:23;;;;;;;13.05;3.15;;;11.20;82.50;;;;;;5050406;28;20170;-83
2020/12/01 11:28:54;;;;;;;60.97;7.68;;;11.10;82.70;;;;;;5073195;28;20051;-84
2020/12/01 11:31:22;;;;;;;14.03;2.77;;;11.10;82.00;;;;;;5066407;28;20145;-84
2020/12/01 11:34:09;;;;;;;13.15;3.75;;;11.10;82.70;;;;;;5064391;28;20055;-86
2020/12/01 11:36:46;;;;;;;16.45;3.65;;;11.20;82.10;;;;;;5062722;28;20048;-85
2020/12/01 11:39:31;;;;;;;9.32;2.78;;;11.30;82.70;;;;;;5082399;28;20041;-86
2020/12/01 11:42:08;;;;;;;;;;;;;;;;;;;;;
2020/12/01 11:44:54;;;;;;;8.05;2.10;;;11.30;82.50;;;;;;5071238;28;20480;-81
2020/12/01 11:47:57;;;;;;;9.55;2.65;;;11.30;82.30;;;;;;5040503;28;20151;-84
2020/12/01 11:50:43;;;;;;;12.43;2.42;;;11.20;81.90;;;;;;5076117;28;20209;-85
2020/12/01 11:53:11;;;;;;;6.90;2.28;;;11.00;81.10;;;;;;5072184;28;20174;-84
2020/12/01 11:55:41;;;;;;;7.55;1.60;;;11.00;80.90;;;;;;5073303;28;20033;-84
2020/12/01 11:58:35;;;;;;;4.90;1.60;;;11.00;80.00;;;;;;5055370;28;20040;-84
2020/12/01 12:01:08;;;;;;;5.35;1.60;;;10.90;80.10;;;;;;5071536;28;20032;-85
2020/12/01 12:03:40;;;;;;;7.55;1.98;;;10.80;80.30;;;;;;5057731;28;20063;-83
2020/12/01 12:06:08;;;;;;;9.40;2.30;;;10.70;80.30;;;;;;5059400;28;20043;-83
2020/12/01 12:08:55;;;;;;;4.40;1.60;;;10.70;80.20;;;;;;5058186;28;20059;-84
2020/12/01 12:11:51;;;;;;;10.53;2.50;;;10.70;80.40;;;;;;5085889;28;20036;-86
2020/12/01 12:14:57;;;;;;;8.40;2.63;;;10.70;80.40;;;;;;5050626;28;20051;-85
2020/12/01 12:17:43;;;;;;;9.37;2.00;;;10.80;81.30;;;;;;5080536;28;20067;-85
2020/12/01 12:20:46;;;;;;;8.37;2.03;;;10.90;80.70;;;;;;5073128;28;20044;-85
2020/12/01 12:23:25;;;;;;;9.35;1.95;;;10.80;78.80;;;;;;5087168;28;20036;-85
2020/12/01 12:26:07;;;;;;;7.30;2.70;;;10.90;79.20;;;;;;5088810;28;20039;-84
2020/12/01 12:28:45;;;;;;;8.68;2.53;;;10.90;80.40;;;;;;5061021;28;20040;-85
2020/12/01 12:31:39;;;;;;;4.93;1.83;;;10.90;80.10;;;;;;5071960;28;20105;-84
2020/12/01 12:34:28;;;;;;;;;;;;;;;;;;;;;
2020/12/01 12:37:18;;;;;;;3.33;1.70;;;11.00;80.70;;;;;;5073199;28;20457;-84
2020/12/01 12:39:50;;;;;;;4.85;1.90;;;11.20;79.90;;;;;;5085734;28;20043;-84
2020/12/01 12:42:29;;;;;;;6.10;2.25;;;11.00;79.10;;;;;;5077518;28;20040;-84
2020/12/01 12:44:58;;;;;;;5.63;2.10;;;11.00;79.70;;;;;;5070840;28;20034;-86
2020/12/01 12:47:45;;;;;;;10.00;2.55;;;11.00;79.90;;;;;;5055594;28;20037;-86
2020/12/01 12:50:11;;;;;;;13.25;2.90;;;11.00;80.50;;;;;;5072179;28;20039;-85
2020/12/01 12:52:37;;;;;;;10.13;3.17;;;11.00;80.00;;;;;;5068214;28;20043;-85
2020/12/01 12:55:05;;;;;;;11.25;2.53;;;11.00;79.50;;;;;;5073332;27;20052;-86
2020/12/01 12:57:35;;;;;;;6.63;2.50;;;11.00;79.70;;;;;;5067807;27;20549;-86
2020/12/01 13:00:01;;;;;;;9.65;2.92;;;11.00;79.90;;;;;;5104531;27;20040;-84
2020/12/01 13:02:26;;;;;;;9.93;3.17;;;11.00;79.00;;;;;;5105663;27;20039;-86
2020/12/01 13:04:52;;;;;;;6.95;3.22;;;11.00;79.70;;;;;;5096304;27;20096;-87
2020/12/01 13:07:19;;;;;;;6.57;2.90;;;11.00;79.40;;;;;;5106633;27;20467;-85
2020/12/01 13:09:50;;;;;;;9.25;3.55;;;10.90;79.80;;;;;;5103737;27;20063;-86
2020/12/01 13:12:37;;;;;;;9.55;3.97;;;10.90;79.30;;;;;;5080884;28;20353;-85
2020/12/01 13:15:23;;;;;;;10.05;4.15;;;10.90;79.40;;;;;;5081527;28;20098;-83
2020/12/01 13:17:49;;;;;;;13.32;4.65;;;10.90;80.20;;;;;;5087336;28;20059;-85
2020/12/01 13:20:18;;;;;;;5.93;3.47;;;10.80;79.80;;;;;;5103630;28;20158;-85
2020/12/01 13:23:04;;;;;;;8.63;3.45;;;10.80;79.40;;;;;;5068771;28;20032;-85
2020/12/01 13:25:30;;;;;;;8.48;3.33;;;10.80;79.90;;;;;;5064852;28;20482;-87
2020/12/01 13:27:57;;;;;;;6.63;3.67;;;10.70;80.00;;;;;;5087906;28;20032;-86
2020/12/01 13:30:23;;;;;;;9.77;3.40;;;10.80;81.10;;;;;;5064156;28;20040;-86
2020/12/01 13:32:49;;;;;;;7.13;3.25;;;10.80;80.60;;;;;;5079792;28;20554;-83
2020/12/01 13:35:14;;;;;;;6.90;3.53;;;10.70;79.70;;;;;;5107977;28;20056;-84
2020/12/01 13:38:00;;;;;;;8.47;4.03;;;10.70;80.00;;;;;;5067043;28;20039;-84
2020/12/01 13:40:27;;;;;;;8.90;3.93;;;10.70;80.20;;;;;;5083209;28;20036;-86
2020/12/01 13:43:00;;;;;;;7.10;3.67;;;10.70;80.80;;;;;;5089776;28;20047;-87
2020/12/01 13:45:26;;;;;;;6.45;3.67;;;10.80;81.10;;;;;;5090092;28;20060;-83
2020/12/01 13:48:12;;;;;;;5.53;4.13;;;10.80;79.70;;;;;;5092993;28;20035;-84
2020/12/01 13:50:38;;;;;;;13.73;5.82;;;10.70;78.90;;;;;;5105757;28;20047;-88
2020/12/01 13:53:04;;;;;;;10.13;3.87;;;10.70;79.90;;;;;;5066561;28;20035;-85
2020/12/01 13:55:30;;;;;;;10.93;4.23;;;10.70;80.20;;;;;;5078427;28;20048;-86
2020/12/01 13:57:56;;;;;;;6.95;4.43;;;10.80;80.80;;;;;;5092824;28;20032;-84
2020/12/01 14:00:24;;;;;;;6.18;3.58;;;10.80;79.20;;;;;;5088043;28;20506;-86
2020/12/01 14:02:51;;;;;;;7.73;3.17;;;10.80;79.40;;;;;;5080765;28;20058;-86
2020/12/01 14:05:16;;;;;;;6.30;3.03;;;10.70;80.00;;;;;;5067009;28;20040;-89
2020/12/01 14:07:44;;;;;;;6.73;4.00;;;10.70;79.00;;;;;;5087391;27;20058;-87
2020/12/01 14:10:30;;;;;;;11.87;4.07;;;10.70;78.50;;;;;;5078306;27;20506;-86
2020/12/01 14:12:56;;;;;;;9.70;3.40;;;10.50;79.30;;;;;;5096491;28;20073;-88
2020/12/01 14:15:22;;;;;;;8.17;3.63;;;10.60;79.50;;;;;;5088741;28;20048;-87
2020/12/01 14:17:50;;;;;;;9.90;4.15;;;10.60;79.50;;;;;;5073897;28;20147;-86
2020/12/01 14:20:16;;;;;;;9.40;4.03;;;10.60;80.10;;;;;;5116742;28;20039;-86
2020/12/01 14:22:43;;;;;;;14.30;3.57;;;10.70;80.60;;;;;;5067611;28;20065;-82
2020/12/01 14:25:10;;;;;;;5.50;3.60;;;10.70;80.40;;;;;;5060444;28;20032;-86